createdAt,value
2018-01-03T00:00:11.145Z,99.99
2018-01-03T00:01:11.269Z,99.99
2018-01-03T00:02:11.207Z,99.99
2018-01-03T00:03:11.239Z,99.99
2018-01-03T00:04:11.270Z,99.99
2018-01-03T00:05:11.305Z,99.99
2018-01-03T00:06:11.335Z,99.99
2018-01-03T00:07:11.365Z,99.99
2018-01-03T00:08:11.407Z,99.99
2018-01-03T00:09:11.440Z,99.99
2018-01-03T00:10:11.458Z,99.99
2018-01-03T00:11:11.492Z,99.99
2018-01-03T00:12:11.523Z,99.99
2018-01-03T00:13:11.558Z,99.99
2018-01-03T00:14:11.586Z,99.99
2018-01-03T00:15:11.618Z,99.99
2018-01-03T00:16:11.647Z,99.99
2018-01-03T00:17:11.680Z,99.99
2018-01-03T00:18:11.798Z,99.99
2018-01-03T00:19:11.742Z,99.99
2018-01-03T00:20:11.779Z,99.99
2018-01-03T00:21:11.807Z,99.99
2018-01-03T00:22:11.836Z,99.99
2018-01-03T00:23:11.880Z,99.99
2018-01-03T00:24:11.902Z,99.99
2018-01-03T00:25:11.933Z,99.99
2018-01-03T00:26:11.959Z,99.99
2018-01-03T00:27:11.998Z,99.99
2018-01-03T00:28:12.022Z,99.99
2018-01-03T00:29:12.058Z,99.99
2018-01-03T00:30:12.089Z,99.99
2018-01-03T00:31:12.118Z,99.99
2018-01-03T00:32:12.149Z,99.99
2018-01-03T00:33:12.183Z,99.99
2018-01-03T00:34:12.210Z,99.99
2018-01-03T00:35:12.244Z,99.99
2018-01-03T00:36:12.279Z,99.99
2018-01-03T00:37:12.371Z,99.99
2018-01-03T00:38:12.340Z,99.99
2018-01-03T00:39:12.376Z,99.99
2018-01-03T00:40:12.401Z,99.99
2018-01-03T00:41:12.431Z,99.99
2018-01-03T00:42:12.462Z,99.99
2018-01-03T00:43:12.494Z,99.99
2018-01-03T00:44:12.531Z,99.99
2018-01-03T00:45:12.560Z,99.99
2018-01-03T00:46:12.589Z,99.99
2018-01-03T00:47:12.619Z,99.99
2018-01-03T00:48:12.662Z,99.99
2018-01-03T00:49:12.685Z,99.99
2018-01-03T00:50:12.715Z,99.99
2018-01-03T00:51:12.751Z,99.99
2018-01-03T00:52:12.780Z,99.99
2018-01-03T00:53:12.811Z,99.99
2018-01-03T00:54:12.902Z,99.99
2018-01-03T00:55:12.874Z,99.99
2018-01-03T00:56:12.905Z,99.99
2018-01-03T00:57:12.935Z,99.99
2018-01-03T00:58:12.986Z,99.99
2018-01-03T00:59:13.002Z,99.99
2018-01-03T01:00:13.032Z,99.99
2018-01-03T01:01:13.394Z,99.99
2018-01-03T01:02:13.096Z,99.99
2018-01-03T01:03:13.125Z,99.99
2018-01-03T01:04:13.157Z,99.99
2018-01-03T01:05:13.192Z,99.99
2018-01-03T01:06:13.217Z,99.99
2018-01-03T01:07:13.250Z,99.99
2018-01-03T01:08:13.282Z,99.99
2018-01-03T01:09:13.314Z,99.99
2018-01-03T01:10:13.344Z,99.99
2018-01-03T01:11:13.378Z,99.99
2018-01-03T01:12:13.415Z,99.99
2018-01-03T01:13:13.448Z,99.99
2018-01-03T01:14:13.471Z,99.99
2018-01-03T01:15:13.502Z,99.99
2018-01-03T01:16:13.533Z,99.99
2018-01-03T01:17:13.575Z,99.99
2018-01-03T01:18:13.597Z,99.99
2018-01-03T01:19:13.626Z,99.99
2018-01-03T01:20:13.686Z,99.99
2018-01-03T01:21:13.689Z,99.99
2018-01-03T01:22:13.724Z,99.99
2018-01-03T01:23:13.761Z,99.99
2018-01-03T01:24:13.784Z,99.99
2018-01-03T01:25:13.896Z,99.99
2018-01-03T01:26:13.846Z,99.99
2018-01-03T01:27:13.879Z,99.99
2018-01-03T01:28:13.909Z,99.99
2018-01-03T01:29:13.945Z,99.99
2018-01-03T01:30:13.974Z,99.99
2018-01-03T01:31:14.004Z,99.99
2018-01-03T01:32:14.035Z,99.99
2018-01-03T01:33:14.067Z,99.99
2018-01-03T01:34:14.098Z,99.99
2018-01-03T01:35:14.143Z,99.99
2018-01-03T01:36:14.166Z,99.99
2018-01-03T01:37:14.195Z,99.99
2018-01-03T01:38:14.227Z,99.99
2018-01-03T01:39:14.256Z,99.99
2018-01-03T01:40:14.293Z,99.99
2018-01-03T01:41:14.327Z,99.99
2018-01-03T01:42:14.349Z,99.99
2018-01-03T01:43:14.382Z,99.99
2018-01-03T01:44:14.471Z,99.99
2018-01-03T01:45:14.445Z,99.99
2018-01-03T01:46:14.480Z,99.99
2018-01-03T01:47:14.509Z,99.99
2018-01-03T01:48:14.539Z,99.99
2018-01-03T01:49:14.571Z,99.99
2018-01-03T01:50:14.615Z,99.99
2018-01-03T01:51:14.642Z,99.99
2018-01-03T01:52:14.667Z,99.99
2018-01-03T01:53:14.698Z,99.99
2018-01-03T01:54:14.733Z,99.99
2018-01-03T01:55:14.759Z,99.99
2018-01-03T01:56:14.792Z,99.99
2018-01-03T01:57:14.836Z,99.99
2018-01-03T01:58:14.856Z,99.99
2018-01-03T01:59:14.886Z,99.99
2018-01-03T02:00:14.917Z,99.99
2018-01-03T02:01:14.949Z,99.99
2018-01-03T02:02:14.977Z,99.99
2018-01-03T02:03:15.011Z,99.99
2018-01-03T02:04:15.054Z,99.99
2018-01-03T02:05:15.074Z,99.99
2018-01-03T02:06:15.103Z,99.99
2018-01-03T02:07:15.148Z,99.99
2018-01-03T02:08:15.537Z,99.99
2018-01-03T02:09:15.202Z,99.99
2018-01-03T02:10:15.229Z,99.99
2018-01-03T02:11:15.262Z,99.99
2018-01-03T02:12:15.292Z,99.99
2018-01-03T02:13:15.324Z,99.99
2018-01-03T02:14:15.359Z,99.99
2018-01-03T02:15:15.389Z,99.99
2018-01-03T02:16:15.419Z,99.99
2018-01-03T02:17:15.449Z,99.99
2018-01-03T02:18:15.481Z,99.99
2018-01-03T02:19:15.515Z,99.99
2018-01-03T02:20:15.603Z,99.99
2018-01-03T02:21:15.581Z,99.99
2018-01-03T02:22:15.609Z,99.99
2018-01-03T02:23:15.641Z,99.99
2018-01-03T02:24:15.670Z,99.99
2018-01-03T02:25:15.701Z,99.99
2018-01-03T02:26:15.733Z,99.99
2018-01-03T02:27:15.863Z,99.99
2018-01-03T02:28:15.794Z,99.99
2018-01-03T02:29:15.883Z,99.99
2018-01-03T02:30:15.855Z,99.99
2018-01-03T02:31:15.890Z,99.99
2018-01-03T02:32:15.921Z,99.99
2018-01-03T02:33:15.952Z,99.99
2018-01-03T02:34:15.981Z,99.99
2018-01-03T02:35:16.023Z,99.99
2018-01-03T02:36:16.048Z,99.99
2018-01-03T02:37:16.077Z,99.99
2018-01-03T02:38:16.107Z,99.99
2018-01-03T02:39:16.141Z,99.99
2018-01-03T02:40:16.173Z,99.99
2018-01-03T02:41:16.202Z,99.99
2018-01-03T02:42:16.234Z,99.99
2018-01-03T02:43:16.269Z,99.99
2018-01-03T02:44:16.303Z,99.99
2018-01-03T02:45:16.334Z,99.99
2018-01-03T02:46:16.362Z,99.99
2018-01-03T02:47:16.392Z,99.99
2018-01-03T02:48:16.424Z,99.99
2018-01-03T02:49:16.463Z,99.99
2018-01-03T02:50:16.486Z,99.99
2018-01-03T02:51:16.542Z,99.99
2018-01-03T02:52:16.554Z,99.99
2018-01-03T02:53:16.584Z,99.99
2018-01-03T02:54:16.623Z,99.99
2018-01-03T02:55:16.657Z,99.99
2018-01-03T02:56:16.674Z,99.99
2018-01-03T02:57:16.708Z,99.99
2018-01-03T02:58:16.753Z,99.99
2018-01-03T02:59:16.769Z,99.99
2018-01-03T03:00:16.803Z,99.99
2018-01-03T03:01:16.836Z,99.99
2018-01-03T03:02:16.865Z,99.99
2018-01-03T03:03:16.898Z,99.99
2018-01-03T03:04:16.927Z,99.99
2018-01-03T03:05:16.959Z,99.99
2018-01-03T03:06:16.990Z,99.99
2018-01-03T03:07:17.024Z,99.99
2018-01-03T03:08:17.055Z,99.99
2018-01-03T03:09:17.084Z,99.99
2018-01-03T03:10:17.116Z,99.99
2018-01-03T03:11:17.148Z,99.99
2018-01-03T03:12:17.185Z,99.99
2018-01-03T03:13:17.212Z,99.99
2018-01-03T03:14:17.297Z,99.99
2018-01-03T03:15:17.276Z,99.99
2018-01-03T03:16:17.307Z,99.99
2018-01-03T03:17:17.339Z,99.99
2018-01-03T03:18:17.369Z,99.99
2018-01-03T03:19:17.401Z,99.99
2018-01-03T03:20:17.452Z,99.99
2018-01-03T03:21:17.463Z,99.99
2018-01-03T03:22:17.499Z,99.99
2018-01-03T03:23:17.529Z,99.99
2018-01-03T03:24:17.560Z,99.99
2018-01-03T03:25:17.593Z,99.99
2018-01-03T03:26:17.636Z,99.99
2018-01-03T03:27:17.657Z,99.99
2018-01-03T03:28:17.688Z,99.99
2018-01-03T03:29:17.717Z,99.99
2018-01-03T03:30:17.751Z,99.99
2018-01-03T03:31:17.782Z,99.99
2018-01-03T03:32:17.822Z,99.99
2018-01-03T03:33:17.860Z,99.99
2018-01-03T03:34:18.220Z,99.99
2018-01-03T03:35:17.915Z,99.99
2018-01-03T03:36:17.942Z,99.99
2018-01-03T03:37:17.972Z,99.99
2018-01-03T03:38:18.004Z,99.99
2018-01-03T03:39:18.035Z,99.99
2018-01-03T03:40:18.069Z,99.99
2018-01-03T03:41:18.099Z,99.99
2018-01-03T03:42:18.132Z,99.99
2018-01-03T03:43:18.161Z,99.99
2018-01-03T03:44:18.196Z,99.99
2018-01-03T03:45:18.225Z,99.99
2018-01-03T03:46:18.319Z,99.99
2018-01-03T03:47:18.292Z,99.99
2018-01-03T03:48:18.324Z,99.99
2018-01-03T03:49:18.352Z,99.99
2018-01-03T03:50:18.383Z,99.99
2018-01-03T03:51:18.672Z,99.99
2018-01-03T03:52:18.451Z,99.99
2018-01-03T03:53:18.480Z,99.99
2018-01-03T03:54:18.509Z,99.99
2018-01-03T03:55:18.546Z,99.99
2018-01-03T03:56:18.576Z,99.99
2018-01-03T03:57:18.611Z,99.99
2018-01-03T03:58:18.694Z,99.99
2018-01-03T03:59:18.671Z,99.99
2018-01-03T04:00:18.704Z,99.99
2018-01-03T04:01:18.736Z,99.99
2018-01-03T04:02:18.767Z,99.99
2018-01-03T04:03:18.801Z,99.99
2018-01-03T04:04:18.832Z,99.99
2018-01-03T04:05:18.865Z,99.99
2018-01-03T04:06:18.894Z,99.99
2018-01-03T04:07:18.925Z,99.99
2018-01-03T04:08:18.957Z,99.99
2018-01-03T04:09:18.998Z,99.99
2018-01-03T04:10:19.128Z,99.99
2018-01-03T04:11:19.056Z,99.99
2018-01-03T04:12:19.094Z,99.99
2018-01-03T04:13:19.118Z,99.99
2018-01-03T04:14:19.153Z,99.99
2018-01-03T04:15:19.179Z,99.99
2018-01-03T04:16:19.213Z,99.99
2018-01-03T04:17:19.331Z,99.99
2018-01-03T04:18:19.280Z,99.99
2018-01-03T04:19:19.307Z,99.99
2018-01-03T04:20:19.343Z,99.99
2018-01-03T04:21:19.373Z,99.99
2018-01-03T04:22:19.416Z,99.99
2018-01-03T04:23:19.435Z,99.99
2018-01-03T04:24:19.471Z,99.99
2018-01-03T04:25:19.509Z,99.99
2018-01-03T04:26:19.528Z,99.99
2018-01-03T04:27:19.563Z,99.99
2018-01-03T04:28:19.593Z,99.99
2018-01-03T04:29:19.625Z,99.99
2018-01-03T04:30:19.656Z,99.99
2018-01-03T04:31:19.689Z,99.99
2018-01-03T04:32:19.722Z,99.99
2018-01-03T04:33:19.756Z,99.99
2018-01-03T04:34:19.848Z,99.99
2018-01-03T04:35:19.815Z,99.99
2018-01-03T04:36:19.847Z,99.99
2018-01-03T04:37:19.879Z,99.99
2018-01-03T04:38:19.909Z,99.99
2018-01-03T04:39:20.145Z,99.99
2018-01-03T04:40:19.976Z,99.99
2018-01-03T04:41:20.075Z,99.99
2018-01-03T04:42:20.046Z,99.99
2018-01-03T04:43:20.074Z,99.99
2018-01-03T04:44:20.101Z,99.99
2018-01-03T04:45:20.137Z,99.99
2018-01-03T04:46:20.167Z,99.99
2018-01-03T04:47:20.210Z,99.99
2018-01-03T04:48:20.268Z,99.99
2018-01-03T04:49:20.269Z,99.99
2018-01-03T04:50:20.294Z,99.99
2018-01-03T04:51:20.329Z,99.99
2018-01-03T04:52:20.356Z,99.99
2018-01-03T04:53:20.390Z,99.99
2018-01-03T04:54:20.418Z,99.99
2018-01-03T04:55:20.451Z,99.99
2018-01-03T04:56:20.485Z,99.99
2018-01-03T04:57:20.518Z,99.99
2018-01-03T04:58:20.547Z,99.99
2018-01-03T04:59:20.580Z,99.99
2018-01-03T05:00:20.613Z,99.99
2018-01-03T05:01:20.647Z,99.99
2018-01-03T05:02:20.679Z,99.99
2018-01-03T05:03:20.707Z,99.99
2018-01-03T05:04:20.740Z,99.99
2018-01-03T05:05:20.770Z,99.99
2018-01-03T05:06:20.803Z,99.99
2018-01-03T05:07:21.150Z,99.99
2018-01-03T05:08:20.868Z,99.99
2018-01-03T05:09:20.908Z,99.99
2018-01-03T05:10:20.930Z,99.99
2018-01-03T05:11:20.963Z,99.99
2018-01-03T05:12:20.998Z,99.99
2018-01-03T05:13:21.028Z,99.99
2018-01-03T05:14:21.059Z,99.99
2018-01-03T05:15:21.096Z,99.99
2018-01-03T05:16:21.125Z,99.99
2018-01-03T05:17:21.155Z,99.99
2018-01-03T05:18:21.190Z,99.99
2018-01-03T05:19:21.220Z,99.99
2018-01-03T05:20:21.258Z,99.99
2018-01-03T05:21:21.294Z,99.99
2018-01-03T05:22:21.317Z,99.99
2018-01-03T05:23:21.349Z,99.99
2018-01-03T05:24:21.399Z,99.99
2018-01-03T05:25:21.411Z,99.99
2018-01-03T05:26:21.442Z,99.99
2018-01-03T05:27:21.477Z,99.99
2018-01-03T05:28:21.510Z,99.99
2018-01-03T05:29:21.558Z,99.99
2018-01-03T05:30:21.634Z,99.99
2018-01-03T05:31:21.701Z,99.99
2018-01-03T05:32:21.637Z,99.99
2018-01-03T05:33:21.672Z,99.99
2018-01-03T05:34:21.704Z,99.99
2018-01-03T05:35:21.752Z,99.99
2018-01-03T05:36:21.768Z,99.99
2018-01-03T05:37:21.801Z,99.99
2018-01-03T05:38:21.830Z,99.99
2018-01-03T05:39:21.860Z,99.99
2018-01-03T05:40:21.894Z,99.99
2018-01-03T05:41:21.925Z,99.99
2018-01-03T05:42:21.955Z,99.99
2018-01-03T05:43:21.990Z,99.99
2018-01-03T05:44:22.024Z,99.99
2018-01-03T05:45:22.056Z,99.99
2018-01-03T05:46:22.087Z,99.99
2018-01-03T05:47:22.123Z,99.99
2018-01-03T05:48:22.153Z,99.99
2018-01-03T05:49:22.185Z,99.99
2018-01-03T05:50:22.218Z,99.99
2018-01-03T05:51:22.264Z,99.99
2018-01-03T05:52:22.294Z,99.99
2018-01-03T05:53:22.323Z,99.99
2018-01-03T05:54:22.349Z,99.99
2018-01-03T05:55:22.378Z,99.99
2018-01-03T05:56:22.425Z,99.99
2018-01-03T05:57:22.446Z,99.99
2018-01-03T05:58:22.491Z,99.99
2018-01-03T05:59:22.514Z,99.99
2018-01-03T06:00:22.545Z,99.99
2018-01-03T06:01:22.584Z,99.99
2018-01-03T06:02:22.606Z,99.99
2018-01-03T06:03:22.644Z,99.99
2018-01-03T06:04:22.676Z,99.99
2018-01-03T06:05:22.705Z,99.99
2018-01-03T06:06:22.736Z,99.99
2018-01-03T06:07:22.788Z,99.99
2018-01-03T06:08:22.804Z,99.99
2018-01-03T06:09:22.835Z,99.99
2018-01-03T06:10:22.868Z,99.99
2018-01-03T06:11:22.910Z,99.99
2018-01-03T06:12:22.934Z,99.99
2018-01-03T06:13:22.976Z,99.99
2018-01-03T06:14:23.030Z,99.99
2018-01-03T06:15:23.036Z,99.99
2018-01-03T06:16:23.064Z,99.99
2018-01-03T06:17:23.095Z,99.99
2018-01-03T06:18:23.127Z,99.99
2018-01-03T06:19:23.161Z,99.99
2018-01-03T06:20:23.195Z,99.99
2018-01-03T06:21:23.298Z,99.99
2018-01-03T06:22:23.259Z,99.99
2018-01-03T06:23:23.291Z,99.99
2018-01-03T06:24:23.324Z,99.99
2018-01-03T06:25:23.357Z,99.99
2018-01-03T06:26:23.390Z,99.99
2018-01-03T06:27:23.436Z,99.99
2018-01-03T06:28:23.456Z,99.99
2018-01-03T06:29:23.489Z,99.99
2018-01-03T06:30:23.522Z,99.99
2018-01-03T06:31:23.558Z,99.99
2018-01-03T06:32:23.588Z,99.99
2018-01-03T06:33:23.680Z,99.99
2018-01-03T06:34:23.653Z,99.99
2018-01-03T06:35:23.687Z,99.99
2018-01-03T06:36:23.718Z,99.99
2018-01-03T06:37:23.766Z,99.99
2018-01-03T06:38:23.786Z,99.99
2018-01-03T06:39:23.817Z,99.99
2018-01-03T06:40:23.850Z,99.99
2018-01-03T06:41:23.883Z,99.99
2018-01-03T06:42:23.925Z,99.99
2018-01-03T06:43:23.951Z,99.99
2018-01-03T06:44:23.997Z,99.99
2018-01-03T06:45:24.070Z,99.99
2018-01-03T06:46:24.049Z,99.99
2018-01-03T06:47:24.082Z,99.99
2018-01-03T06:48:24.114Z,99.99
2018-01-03T06:49:24.150Z,99.99
2018-01-03T06:50:24.178Z,99.99
2018-01-03T06:51:24.213Z,99.99
2018-01-03T06:52:24.244Z,99.99
2018-01-03T06:53:24.284Z,99.99
2018-01-03T06:54:24.311Z,99.99
2018-01-03T06:55:24.345Z,99.99
2018-01-03T06:56:24.385Z,99.99
2018-01-03T06:57:24.412Z,99.99
2018-01-03T06:58:24.446Z,99.99
2018-01-03T06:59:24.477Z,99.99
2018-01-03T07:00:24.531Z,99.99
2018-01-03T07:01:24.544Z,99.99
2018-01-03T07:02:24.576Z,99.99
2018-01-03T07:03:24.611Z,99.99
2018-01-03T07:04:24.705Z,99.99
2018-01-03T07:05:24.676Z,99.99
2018-01-03T07:06:24.711Z,99.99
2018-01-03T07:07:24.744Z,99.99
2018-01-03T07:08:24.775Z,99.99
2018-01-03T07:09:24.811Z,99.99
2018-01-03T07:10:24.856Z,99.99
2018-01-03T07:11:24.952Z,99.99
2018-01-03T07:12:24.919Z,99.99
2018-01-03T07:13:24.944Z,99.99
2018-01-03T07:14:24.979Z,99.99
2018-01-03T07:15:25.013Z,99.99
2018-01-03T07:16:25.042Z,99.99
2018-01-03T07:17:25.077Z,99.99
2018-01-03T07:18:25.121Z,99.99
2018-01-03T07:19:25.142Z,99.99
2018-01-03T07:20:25.175Z,99.99
2018-01-03T07:21:25.207Z,99.99
2018-01-03T07:22:25.245Z,99.99
2018-01-03T07:23:25.275Z,99.99
2018-01-03T07:24:25.376Z,99.99
2018-01-03T07:25:25.342Z,99.99
2018-01-03T07:26:25.374Z,99.99
2018-01-03T07:27:25.409Z,99.99
2018-01-03T07:28:25.511Z,99.99
2018-01-03T07:29:25.476Z,99.99
2018-01-03T07:30:25.517Z,99.99
2018-01-03T07:31:25.546Z,99.99
2018-01-03T07:32:25.576Z,99.99
2018-01-03T07:33:25.612Z,99.99
2018-01-03T07:34:25.652Z,99.99
2018-01-03T07:35:25.785Z,99.99
2018-01-03T07:36:25.709Z,99.99
2018-01-03T07:37:25.745Z,99.99
2018-01-03T07:38:25.773Z,99.99
2018-01-03T07:39:25.806Z,99.99
2018-01-03T07:40:25.859Z,99.99
2018-01-03T07:41:25.874Z,99.99
2018-01-03T07:42:25.925Z,99.99
2018-01-03T07:43:25.947Z,99.99
2018-01-03T07:44:25.973Z,99.99
2018-01-03T07:45:26.010Z,99.99
2018-01-03T07:46:26.041Z,99.99
2018-01-03T07:47:26.127Z,99.99
2018-01-03T07:48:26.109Z,99.99
2018-01-03T07:49:26.140Z,99.99
2018-01-03T07:50:26.230Z,99.99
2018-01-03T07:51:26.208Z,99.99
2018-01-03T07:52:26.246Z,99.99
2018-01-03T07:53:26.282Z,99.99
2018-01-03T07:54:26.403Z,99.99
2018-01-03T07:55:26.341Z,99.99
2018-01-03T07:56:26.375Z,99.99
2018-01-03T07:57:26.410Z,99.99
2018-01-03T07:58:26.442Z,99.99
2018-01-03T07:59:26.477Z,99.99
2018-01-03T08:00:26.512Z,99.99
2018-01-03T08:01:26.542Z,99.99
2018-01-03T08:02:26.576Z,99.99
2018-01-03T08:03:26.606Z,99.99
2018-01-03T08:04:26.641Z,99.99
2018-01-03T08:05:26.686Z,99.99
2018-01-03T08:06:26.707Z,99.99
2018-01-03T08:07:26.740Z,99.99
2018-01-03T08:08:26.776Z,99.99
2018-01-03T08:09:26.807Z,99.99
2018-01-03T08:10:26.846Z,99.99
2018-01-03T08:11:26.934Z,99.99
2018-01-03T08:12:26.907Z,99.99
2018-01-03T08:13:26.939Z,99.99
2018-01-03T08:14:26.979Z,99.99
2018-01-03T08:15:27.007Z,99.99
2018-01-03T08:16:27.041Z,99.99
2018-01-03T08:17:27.073Z,99.99
2018-01-03T08:18:27.108Z,99.99
2018-01-03T08:19:27.141Z,99.99
2018-01-03T08:20:27.173Z,99.99
2018-01-03T08:21:27.226Z,99.99
2018-01-03T08:22:27.244Z,99.99
2018-01-03T08:23:27.334Z,99.99
2018-01-03T08:24:27.309Z,99.99
2018-01-03T08:25:27.413Z,99.99
2018-01-03T08:26:27.372Z,99.99
2018-01-03T08:27:27.411Z,99.99
2018-01-03T08:28:27.439Z,99.99
2018-01-03T08:29:27.476Z,99.99
2018-01-03T08:30:27.506Z,99.99
2018-01-03T08:31:27.552Z,99.99
2018-01-03T08:32:27.610Z,99.99
2018-01-03T08:33:27.606Z,99.99
2018-01-03T08:34:27.639Z,99.99
2018-01-03T08:35:27.672Z,99.99
2018-01-03T08:36:27.705Z,99.99
2018-01-03T08:37:27.743Z,99.99
2018-01-03T08:38:27.771Z,99.99
2018-01-03T08:39:27.806Z,99.99
2018-01-03T08:40:27.841Z,99.99
2018-01-03T08:41:27.885Z,99.99
2018-01-03T08:42:27.906Z,98.93
2018-01-03T08:43:27.944Z,99.79
2018-01-03T08:44:28.028Z,99.88
2018-01-03T08:45:28.061Z,99.50
2018-01-03T08:46:28.041Z,99.88
2018-01-03T08:47:28.128Z,99.88
2018-01-03T08:48:28.104Z,99.41
2018-01-03T08:49:28.141Z,99.99
2018-01-03T08:50:28.172Z,99.50
2018-01-03T08:51:28.273Z,99.79
2018-01-03T08:52:28.242Z,99.99
2018-01-03T08:53:28.272Z,99.79
2018-01-03T08:54:28.305Z,99.60
2018-01-03T08:55:28.343Z,99.02
2018-01-03T08:56:28.372Z,97.98
2018-01-03T08:57:28.408Z,97.98
2018-01-03T08:58:28.440Z,97.41
2018-01-03T08:59:28.472Z,97.98
2018-01-03T09:00:28.507Z,98.27
2018-01-03T09:01:28.598Z,97.79
2018-01-03T09:02:28.574Z,97.60
2018-01-03T09:03:28.613Z,98.74
2018-01-03T09:04:28.641Z,98.36
2018-01-03T09:05:28.705Z,98.17
2018-01-03T09:06:28.710Z,97.88
2018-01-03T09:07:28.743Z,97.69
2018-01-03T09:08:28.777Z,97.22
2018-01-03T09:09:28.814Z,96.94
2018-01-03T09:10:28.845Z,97.69
2018-01-03T09:11:28.878Z,97.69
2018-01-03T09:12:28.910Z,97.88
2018-01-03T09:13:28.944Z,96.17
2018-01-03T09:14:28.980Z,96.36
2018-01-03T09:15:29.080Z,96.55
2018-01-03T09:16:29.046Z,96.17
2018-01-03T09:17:29.085Z,95.98
2018-01-03T09:18:29.113Z,95.89
2018-01-03T09:19:29.148Z,96.08
2018-01-03T09:20:29.180Z,96.17
2018-01-03T09:21:29.216Z,96.36
2018-01-03T09:22:29.252Z,96.08
2018-01-03T09:23:29.293Z,95.22
2018-01-03T09:24:29.321Z,95.03
2018-01-03T09:25:29.351Z,95.70
2018-01-03T09:26:29.386Z,95.70
2018-01-03T09:27:29.421Z,95.70
2018-01-03T09:28:29.476Z,96.17
2018-01-03T09:29:29.487Z,96.08
2018-01-03T09:30:29.522Z,96.17
2018-01-03T09:31:29.555Z,96.84
2018-01-03T09:32:29.587Z,97.50
2018-01-03T09:33:29.621Z,97.13
2018-01-03T09:34:29.711Z,97.03
2018-01-03T09:35:29.689Z,99.02
2018-01-03T09:36:29.744Z,99.99
2018-01-03T09:37:29.757Z,99.99
2018-01-03T09:38:29.793Z,99.99
2018-01-03T09:39:29.890Z,99.99
2018-01-03T09:40:29.859Z,99.99
2018-01-03T09:41:29.972Z,99.99
2018-01-03T09:42:29.925Z,99.99
2018-01-03T09:43:29.959Z,99.99
2018-01-03T09:44:29.991Z,99.99
2018-01-03T09:45:30.025Z,99.99
2018-01-03T09:46:30.058Z,99.99
2018-01-03T09:47:30.090Z,99.99
2018-01-03T09:48:30.191Z,99.99
2018-01-03T09:49:30.153Z,99.99
2018-01-03T09:50:30.192Z,99.99
2018-01-03T09:51:30.216Z,99.99
2018-01-03T09:52:30.251Z,99.99
2018-01-03T09:54:30.322Z,99.99
2018-01-03T09:55:30.349Z,99.99
2018-01-03T09:56:30.381Z,99.99
2018-01-03T09:57:30.412Z,99.99
2018-01-03T09:58:30.442Z,99.99
2018-01-03T09:59:30.480Z,99.99
2018-01-03T10:00:30.524Z,99.99
2018-01-03T10:01:30.562Z,99.99
2018-01-03T10:02:30.571Z,99.99
2018-01-03T10:03:30.603Z,99.99
2018-01-03T10:04:30.643Z,99.99
2018-01-03T10:05:30.740Z,99.99
2018-01-03T10:06:30.701Z,99.99
2018-01-03T10:07:30.732Z,99.99
2018-01-03T10:08:30.783Z,99.99
2018-01-03T10:09:30.821Z,99.99
2018-01-03T10:10:30.834Z,99.99
2018-01-03T10:11:30.860Z,99.99
2018-01-03T10:12:30.892Z,99.99
2018-01-03T10:13:30.925Z,99.99
2018-01-03T10:14:30.957Z,99.99
2018-01-03T10:15:30.986Z,99.99
2018-01-03T10:16:31.088Z,99.99
2018-01-03T10:17:31.053Z,99.99
2018-01-03T10:18:31.083Z,99.99
2018-01-03T10:19:31.122Z,99.99
2018-01-03T10:20:31.170Z,99.99
2018-01-03T10:21:31.184Z,99.99
2018-01-03T10:22:31.213Z,99.99
2018-01-03T10:23:31.245Z,99.99
2018-01-03T10:24:31.343Z,99.99
2018-01-03T10:25:31.321Z,99.99
2018-01-03T10:26:31.344Z,99.99
2018-01-03T10:27:31.372Z,99.99
2018-01-03T10:28:31.406Z,99.99
2018-01-03T10:29:31.435Z,99.99
2018-01-03T10:30:31.466Z,99.99
2018-01-03T10:31:31.521Z,99.99
2018-01-03T10:32:31.536Z,99.99
2018-01-03T10:33:31.563Z,99.99
2018-01-03T10:34:31.596Z,99.99
2018-01-03T10:35:31.628Z,99.99
2018-01-03T10:36:31.865Z,99.99
2018-01-03T10:37:31.694Z,99.99
2018-01-03T10:38:31.727Z,99.99
2018-01-03T10:40:31.790Z,99.99
2018-01-03T10:41:31.819Z,99.99
2018-01-03T10:42:31.849Z,99.99
2018-01-03T10:43:31.884Z,98.92
2018-01-03T10:44:31.918Z,99.99
2018-01-03T10:45:31.947Z,99.99
2018-01-03T10:46:31.978Z,99.99
2018-01-03T10:47:32.011Z,99.99
2018-01-03T10:48:32.052Z,99.99
2018-01-03T10:49:32.076Z,99.99
2018-01-03T10:50:32.114Z,99.99
2018-01-03T10:51:32.345Z,99.99
2018-01-03T10:52:32.177Z,99.99
2018-01-03T10:53:32.206Z,99.58
2018-01-03T10:54:32.234Z,99.99
2018-01-03T10:55:32.332Z,99.99
2018-01-03T10:56:32.304Z,99.99
2018-01-03T10:57:32.337Z,99.77
2018-01-03T10:59:32.396Z,99.99
2018-01-03T11:00:32.432Z,99.99
2018-01-03T11:01:32.461Z,99.99
2018-01-03T11:02:32.820Z,99.99
2018-01-03T11:03:32.527Z,99.99
2018-01-03T11:05:32.587Z,99.99
2018-01-03T11:06:32.621Z,99.99
2018-01-03T11:07:32.682Z,99.40
2018-01-03T11:08:32.688Z,99.99
2018-01-03T11:09:32.717Z,99.40
2018-01-03T11:10:32.749Z,99.58
2018-01-03T11:11:32.779Z,99.99
2018-01-03T11:12:32.837Z,99.99
2018-01-03T11:13:32.843Z,99.99
2018-01-03T11:14:32.878Z,99.97
2018-01-03T11:15:32.909Z,99.99
2018-01-03T11:16:32.998Z,99.99
2018-01-03T11:17:32.976Z,99.99
2018-01-03T11:18:33.013Z,99.99
2018-01-03T11:19:33.098Z,99.99
2018-01-03T11:20:33.070Z,99.99
2018-01-03T11:21:33.163Z,99.99
2018-01-03T11:22:33.139Z,99.99
2018-01-03T11:23:33.222Z,99.49
2018-01-03T11:24:33.214Z,97.50
2018-01-03T11:25:33.242Z,98.26
2018-01-03T11:26:33.262Z,97.88
2018-01-03T11:27:33.297Z,97.97
2018-01-03T11:28:33.329Z,97.31
2018-01-03T11:29:33.359Z,97.60
2018-01-03T11:30:33.389Z,97.12
2018-01-03T11:31:33.423Z,97.55
2018-01-03T11:32:33.455Z,97.64
2018-01-03T11:33:33.490Z,98.59
2018-01-03T11:34:33.536Z,97.74
2018-01-03T11:35:33.550Z,98.02
2018-01-03T11:36:33.603Z,97.07
2018-01-03T11:37:33.637Z,97.27
2018-01-03T11:38:33.673Z,96.41
2018-01-03T11:39:33.681Z,98.59
2018-01-03T11:40:33.715Z,97.64
2018-01-03T11:41:33.781Z,96.22
2018-01-03T11:42:33.779Z,96.26
2018-01-03T11:43:33.812Z,96.03
2018-01-03T11:44:33.843Z,96.12
2018-01-03T11:45:33.986Z,96.08
2018-01-03T11:46:33.928Z,95.94
2018-01-03T11:47:33.941Z,96.17
2018-01-03T11:48:33.974Z,96.41
2018-01-03T11:49:34.007Z,96.08
2018-01-03T11:50:34.041Z,95.55
2018-01-03T11:51:34.073Z,96.45
2018-01-03T11:52:34.105Z,95.79
2018-01-03T11:53:34.148Z,95.98
2018-01-03T11:54:34.171Z,96.08
2018-01-03T11:55:34.202Z,96.08
2018-01-03T11:56:34.237Z,95.41
2018-01-03T11:57:34.274Z,96.74
2018-01-03T11:58:34.305Z,96.50
2018-01-03T11:59:34.335Z,96.79
2018-01-03T12:00:34.384Z,96.98
2018-01-03T12:01:34.423Z,97.64
2018-01-03T12:02:34.436Z,98.88
2018-01-03T12:03:34.465Z,99.54
2018-01-03T12:04:34.503Z,98.97
2018-01-03T12:05:34.533Z,99.99
2018-01-03T12:06:34.592Z,99.83
2018-01-03T12:07:34.600Z,99.73
2018-01-03T12:08:34.637Z,99.73
2018-01-03T12:09:34.664Z,99.44
2018-01-03T12:10:34.753Z,99.44
2018-01-03T12:11:34.735Z,99.99
2018-01-03T12:12:34.771Z,98.21
2018-01-03T12:13:34.798Z,97.36
2018-01-03T12:14:34.832Z,98.02
2018-01-03T12:15:34.887Z,97.17
2018-01-03T12:16:34.895Z,97.55
2018-01-03T12:17:34.926Z,97.74
2018-01-03T12:18:34.957Z,98.12
2018-01-03T12:19:34.995Z,96.88
2018-01-03T12:20:35.031Z,96.50
2018-01-03T12:21:35.058Z,97.07
2018-01-03T12:22:35.094Z,97.07
2018-01-03T12:23:35.126Z,97.92
2018-01-03T12:24:35.159Z,99.54
2018-01-03T12:25:35.190Z,98.69
2018-01-03T12:26:35.229Z,98.88
2018-01-03T12:27:35.256Z,97.74
2018-01-03T12:28:35.352Z,99.83
2018-01-03T12:29:35.327Z,99.44
2018-01-03T12:30:35.356Z,96.88
2018-01-03T12:31:35.387Z,96.03
2018-01-03T12:32:35.421Z,97.17
2018-01-03T12:33:35.463Z,95.94
2018-01-03T12:34:35.487Z,96.88
2018-01-03T12:35:35.565Z,97.17
2018-01-03T12:36:35.551Z,96.69
2018-01-03T12:37:35.587Z,95.55
2018-01-03T12:38:35.617Z,95.55
2018-01-03T12:39:35.649Z,95.94
2018-01-03T12:40:35.683Z,96.41
2018-01-03T12:41:35.716Z,95.84
2018-01-03T12:42:35.752Z,94.89
2018-01-03T12:43:35.782Z,94.89
2018-01-03T12:44:35.817Z,95.08
2018-01-03T12:45:35.851Z,94.89
2018-01-03T12:46:35.890Z,94.89
2018-01-03T12:47:35.926Z,94.23
2018-01-03T12:48:35.947Z,94.37
2018-01-03T12:49:35.978Z,93.75
2018-01-03T12:50:36.010Z,93.94
2018-01-03T12:51:36.044Z,95.65
2018-01-03T12:52:36.079Z,95.08
2018-01-03T12:53:36.109Z,94.51
2018-01-03T12:54:36.142Z,94.32
2018-01-03T12:55:36.173Z,94.46
2018-01-03T12:56:36.208Z,94.46